Pagina principală
METAR-TAF:

METAR-TAF

Aeroporturi :

Weno, Micronezia

Latitudine: 07-28N, longitudine: 151-51E, elevație: 3 m

Observații meteo curente

Raportul a fost făcut în urmă cu 1 oră și 2 de minute, la 01:53 UTC
Vânt 6 kt din direcții variabile
Temperatură 32°C
Umiditate 75%
Presiune 1008 hPa
Vizibilitate: 24.1 km
Nori împrăștiați la o înălțime de 1400 picior
Nori fragmentați la o înălțime de 12000 picior
Total acoperit la o înălțime de 28000 picior

METAR: PTKK 020153Z COR VRB06KT 15SM SCT014 BKN120 OVC280 32/27 A2977 RMK CB DSNT NW-N SLP084 T03170272

Ora: 12:55 (02:55 UTC)

Prognoză

Raportul a fost făcut în urmă cu 3 ore și 28 de minute, la 23:27 UTC
Prognoză valabilă de la 02 ora 00 UTC la 02 ora 24 UTC
Vânt 8 kt de la Sud-est
Vizibilitate: 10 km
Nori împrăștiați la o înălțime de 1500 picior
Nori fragmentați la o înălțime de 12000 picior
averse în apropiere

TAF: PTKK 012327Z 0200/0224 13008KT P6SM VCSH SCT015 BKN120

Observații și prognoze meteo pentru peste 4.000 de aeroporturi (rapoarte METAR și TAF).

Stațiile disponibile sunt reprezentate pe hartă prin puncte galbene și roșii.

Țineți indicatorul mouse-ului pe punctul dorit pentru a vedea denumirea stației.

Apoi, faceți clic pentru a vedea observațiile și prognozele meteorologice.

Pentru a schimba harta: Pentru mărire, faceți clic pe butoanele verzi cu cruce neagră; pentru micșorare, pe butonul verde cu o liniuță; pentru hărți învecinate, pe săgețile verzi.


METAR-TAF: